Time;durP1;ratioP1;P1;durP2;ratioP2;P2;SDS_P1;SDS_P2;PMS_P1;PMS_P2;Temp;Humidity;BMP_temperature;BMP_pressure;BME280_temperature;BME280_humidity;BME280_pressure;Samples;Min_cycle;Max_cycle;Signal;HPM_P1;HPM_P2
2023/08/25 00:01:55;;;;;;;4.53;3.78;;;;;;;16.73;100.00;100758.28;4980011;28;20650;-42
2023/08/25 00:04:21;;;;;;;6.10;3.75;;;;;;;16.66;100.00;100752.38;4977709;28;20292;-42
2023/08/25 00:06:46;;;;;;;4.57;3.30;;;;;;;16.73;100.00;100758.28;4975942;28;20190;-41
2023/08/25 00:09:12;;;;;;;5.35;4.03;;;;;;;16.76;100.00;100756.22;4971561;28;20600;-42
2023/08/25 00:11:38;;;;;;;5.07;3.42;;;;;;;16.86;100.00;100749.28;4978269;28;20193;-42
2023/08/25 00:14:04;;;;;;;5.63;4.00;;;;;;;16.84;100.00;100744.94;4976719;28;20287;-42
2023/08/25 00:16:30;;;;;;;6.78;4.43;;;;;;;16.91;100.00;100743.56;4948758;28;20731;-41
2023/08/25 00:18:55;;;;;;;8.43;4.65;;;;;;;16.87;100.00;100740.19;4978823;28;20312;-41
2023/08/25 00:21:21;;;;;;;5.80;5.15;;;;;;;16.86;100.00;100729.47;4981963;28;20174;-41
2023/08/25 00:23:47;;;;;;;6.07;4.55;;;;;;;16.91;100.00;100730.03;4986313;28;20627;-41
2023/08/25 00:26:12;;;;;;;9.35;5.53;;;;;;;16.79;100.00;100728.09;4979215;28;20173;-41
2023/08/25 00:28:38;;;;;;;7.35;6.60;;;;;;;16.81;100.00;100718.06;4983699;28;20197;-40
2023/08/25 00:31:03;;;;;;;6.18;5.40;;;;;;;16.87;100.00;100706.84;4982373;28;20182;-41
2023/08/25 00:33:29;;;;;;;5.57;5.07;;;;;;;16.97;100.00;100699.84;4980685;28;20178;-42
2023/08/25 00:35:54;;;;;;;7.68;6.43;;;;;;;16.94;100.00;100701.88;4981023;28;20317;-41
2023/08/25 00:38:20;;;;;;;7.63;6.85;;;;;;;16.92;100.00;100699.28;4984586;28;20192;-41
2023/08/25 00:40:47;;;;;;;8.10;6.88;;;;;;;16.98;100.00;100708.84;4977335;28;20182;-40
2023/08/25 00:43:12;;;;;;;7.82;7.10;;;;;;;17.00;100.00;100706.91;4968396;28;20601;-43
2023/08/25 00:45:41;;;;;;;7.07;6.38;;;;;;;17.01;100.00;100704.09;4968739;28;20169;-42
2023/08/25 00:48:08;;;;;;;10.25;8.05;;;;;;;16.95;100.00;100706.34;4973835;28;20553;-42
2023/08/25 00:50:35;;;;;;;7.63;6.47;;;;;;;17.02;100.00;100696.84;4964404;28;20230;-42
2023/08/25 00:53:02;;;;;;;10.07;7.68;;;;;;;17.05;100.00;100688.50;4971894;28;20174;-42
2023/08/25 00:55:28;;;;;;;7.47;6.70;;;;;;;17.12;100.00;100675.41;4982531;28;20665;-42
2023/08/25 00:57:54;;;;;;;12.52;8.70;;;;;;;17.04;100.00;100678.66;4963078;28;20200;-41
2023/08/25 01:00:19;;;;;;;9.52;8.10;;;;;;;17.00;100.00;100677.13;4968293;28;20202;-42
2023/08/25 01:02:45;;;;;;;10.73;7.93;;;;;;;17.01;100.00;100663.50;4982600;28;20181;-39
2023/08/25 01:05:11;;;;;;;10.60;9.55;;;;;;;17.00;100.00;100664.44;4963133;28;20190;-39
2023/08/25 01:07:36;;;;;;;11.25;8.98;;;;;;;17.00;100.00;100664.44;4969506;28;20227;-41
2023/08/25 01:10:03;;;;;;;8.90;8.20;;;;;;;16.96;100.00;100645.81;4979877;28;20229;-41
2023/08/25 01:13:04;;;;;;;11.50;9.57;;;;;;;17.04;100.00;100648.88;4984128;28;20235;-41
2023/08/25 01:15:33;;;;;;;9.82;8.93;;;;;;;17.01;100.00;100655.38;4964026;28;20286;-39
2023/08/25 01:18:06;;;;;;;9.85;8.20;;;;;;;17.01;100.00;100654.47;4982274;28;20198;-41
2023/08/25 01:20:32;;;;;;;8.60;7.50;;;;;;;17.11;100.00;100652.91;4978066;28;20279;-44
2023/08/25 01:23:25;;;;;;;9.07;8.18;;;;;;;17.10;100.00;100656.59;4971210;28;20289;-41
2023/08/25 01:25:53;;;;;;;10.60;9.45;;;;;;;17.14;100.00;100665.34;4977963;28;20178;-40
2023/08/25 01:28:20;;;;;;;6.95;6.28;;;;;;;17.22;100.00;100669.28;4966869;28;20189;-40
2023/08/25 01:30:48;;;;;;;9.35;8.45;;;;;;;17.14;100.00;100668.06;4980383;28;20659;-41
2023/08/25 01:33:15;;;;;;;9.07;8.00;;;;;;;17.09;100.00;100668.38;4966021;28;20185;-42
2023/08/25 01:36:06;;;;;;;6.63;5.82;;;;;;;17.23;100.00;100660.19;4980635;28;20279;-39
2023/08/25 01:38:47;;;;;;;10.60;9.50;;;;;;;17.21;100.00;100664.84;4979200;28;20182;-42
2023/08/25 01:41:16;;;;;;;9.95;8.95;;;;;;;17.14;100.00;100638.28;4978733;28;20194;-40
2023/08/25 01:43:46;;;;;;;11.00;8.40;;;;;;;17.18;100.00;100637.97;4963184;28;20189;-39
2023/08/25 01:46:15;;;;;;;7.88;7.18;;;;;;;17.22;100.00;100635.91;4963001;28;20257;-39
2023/08/25 01:48:43;;;;;;;8.38;7.15;;;;;;;17.19;100.00;100628.88;4978494;28;20194;-41
2023/08/25 01:51:10;;;;;;;8.45;7.55;;;;;;;17.20;100.00;100627.03;4983901;28;20304;-40
2023/08/25 01:53:36;;;;;;;8.30;7.30;;;;;;;17.23;100.00;100633.13;4975156;28;20177;-45
2023/08/25 01:56:02;;;;;;;7.43;6.75;;;;;;;17.26;100.00;100624.75;4976598;28;20353;-44
2023/08/25 01:58:28;;;;;;;10.60;9.50;;;;;;;17.14;100.00;100614.78;4977078;28;20251;-45
2023/08/25 02:00:53;;;;;;;9.90;8.15;;;;;;;17.14;100.00;100614.78;4959834;28;20258;-46
2023/08/25 02:03:21;;;;;;;11.57;9.48;;;;;;;17.16;100.00;100612.81;4962388;28;20178;-44
2023/08/25 02:05:47;;;;;;;10.98;9.43;;;;;;;17.07;100.00;100599.94;4960282;28;20197;-44
2023/08/25 02:08:13;;;;;;;9.63;8.63;;;;;;;17.09;100.00;100581.75;4975567;28;20670;-43
2023/08/25 02:10:39;;;;;;;10.25;9.35;;;;;;;17.10;100.00;100588.91;4960303;28;20190;-46
2023/08/25 02:13:05;;;;;;;11.73;10.32;;;;;;;17.07;100.00;100587.25;4977028;28;20177;-47
2023/08/25 02:15:30;;;;;;;11.32;10.10;;;;;;;17.03;100.00;100572.22;4974602;28;20178;-45
2023/08/25 02:17:56;;;;;;;12.75;10.05;;;;;;;16.99;100.00;100573.41;4962759;28;20193;-45
2023/08/25 02:20:21;;;;;;;12.27;10.02;;;;;;;16.99;100.00;100567.13;4961824;28;20373;-44
2023/08/25 02:22:47;;;;;;;10.63;9.63;;;;;;;16.96;100.00;100570.03;4962202;28;20603;-45
2023/08/25 02:25:12;;;;;;;11.00;9.90;;;;;;;16.94;100.00;100562.03;4970007;28;20184;-45
2023/08/25 02:27:38;;;;;;;11.15;9.88;;;;;;;16.94;100.00;100569.28;4963777;28;20177;-45
2023/08/25 02:30:05;;;;;;;10.80;9.70;;;;;;;16.95;100.00;100579.16;4978841;28;20567;-45
2023/08/25 02:32:30;;;;;;;11.07;9.63;;;;;;;16.95;100.00;100571.88;4962849;28;20186;-45
2023/08/25 02:34:56;;;;;;;10.65;9.57;;;;;;;16.94;100.00;100580.97;4978148;28;20189;-44
2023/08/25 02:37:21;;;;;;;10.60;9.25;;;;;;;16.94;100.00;100574.69;4962369;28;20190;-45
2023/08/25 02:39:47;;;;;;;12.00;9.98;;;;;;;16.95;100.00;100579.16;4973583;28;20210;-44
2023/08/25 02:42:13;;;;;;;11.07;10.05;;;;;;;16.97;100.00;100585.31;4953035;28;20177;-43
2023/08/25 02:44:39;;;;;;;10.77;9.60;;;;;;;16.99;100.00;100572.53;4959096;28;20170;-44
2023/08/25 02:47:04;;;;;;;11.48;10.35;;;;;;;16.98;100.00;100573.50;4966363;28;20706;-43
2023/08/25 02:49:30;;;;;;;11.32;10.13;;;;;;;16.98;100.00;100573.50;4975685;28;20211;-44
2023/08/25 02:51:56;;;;;;;12.73;11.02;;;;;;;16.96;100.00;100581.72;4980842;28;20213;-44
2023/08/25 02:54:25;;;;;;;11.38;10.10;;;;;;;17.00;100.00;100585.09;4968015;28;20548;-44
2023/08/25 02:56:50;;;;;;;11.52;10.15;;;;;;;16.99;100.00;100578.81;4958750;28;20197;-44
2023/08/25 02:59:16;;;;;;;11.85;10.00;;;;;;;17.04;100.00;100564.97;4977389;28;20216;-46
2023/08/25 03:01:41;;;;;;;11.85;10.35;;;;;;;17.06;100.00;100560.31;4962671;28;20177;-44
2023/08/25 03:04:07;;;;;;;11.73;9.23;;;;;;;17.10;100.00;100559.13;4960923;28;20328;-46
2023/08/25 03:06:32;;;;;;;11.77;10.38;;;;;;;17.04;100.00;100559.56;4972453;28;20240;-44
2023/08/25 03:08:58;;;;;;;10.30;9.38;;;;;;;17.03;100.00;100549.69;4960328;28;20213;-44
2023/08/25 03:11:24;;;;;;;11.13;8.80;;;;;;;17.05;100.00;100563.97;4975698;28;20645;-44
2023/08/25 03:13:49;;;;;;;12.32;11.20;;;;;;;16.99;100.00;100554.47;4963427;28;20181;-43
2023/08/25 03:16:15;;;;;;;11.68;10.68;;;;;;;16.99;100.00;100549.06;4978505;28;20312;-45
2023/08/25 03:18:41;;;;;;;14.80;12.02;;;;;;;17.04;100.00;100549.59;4963153;28;20197;-45
2023/08/25 03:21:06;;;;;;;15.18;10.27;;;;;;;17.11;100.00;100549.16;4977667;28;20185;-44
2023/08/25 03:23:35;;;;;;;13.40;12.07;;;;;;;17.07;100.00;100557.47;4960675;28;20186;-44
2023/08/25 03:26:04;;;;;;;12.10;10.82;;;;;;;17.13;100.00;100548.09;4980607;28;20208;-46
2023/08/25 03:28:29;;;;;;;13.38;12.18;;;;;;;17.09;100.00;100552.84;4976256;28;20682;-45
2023/08/25 03:30:55;;;;;;;13.80;12.38;;;;;;;17.09;100.00;100542.00;4980991;28;20260;-45
2023/08/25 03:33:23;;;;;;;13.10;11.85;;;;;;;17.10;100.00;100542.91;4961111;28;20188;-44
2023/08/25 03:35:49;;;;;;;12.85;11.50;;;;;;;17.16;100.00;100550.56;4958657;28;20213;-43
2023/08/25 03:38:14;;;;;;;13.63;12.23;;;;;;;17.16;100.00;100552.41;4974930;28;20245;-44
2023/08/25 03:40:40;;;;;;;13.80;12.48;;;;;;;17.22;100.00;100555.56;4962105;28;20281;-43
2023/08/25 03:43:05;;;;;;;14.88;13.50;;;;;;;17.21;100.00;100548.41;4980198;28;20223;-44
2023/08/25 03:45:31;;;;;;;15.88;14.23;;;;;;;17.14;100.00;100540.81;4958118;28;20273;-47
2023/08/25 03:47:57;;;;;;;16.48;14.30;;;;;;;17.14;100.00;100541.69;4980342;28;20190;-44
2023/08/25 03:50:24;;;;;;;17.23;15.68;;;;;;;17.15;100.00;100545.28;4978972;28;20676;-44
2023/08/25 03:52:52;;;;;;;18.88;16.98;;;;;;;17.16;100.00;100550.56;4960657;28;20640;-44
2023/08/25 03:55:18;;;;;;;18.27;16.48;;;;;;;17.14;100.00;100546.22;4961727;28;20181;-45
2023/08/25 03:57:43;;;;;;;16.80;15.10;;;;;;;17.12;100.00;100548.19;4965345;28;20197;-44
2023/08/25 04:00:09;;;;;;;19.25;17.30;;;;;;;17.13;100.00;100548.09;4963854;28;20209;-45
2023/08/25 04:02:41;;;;;;;17.45;15.68;;;;;;;17.11;100.00;100550.03;4978385;28;20189;-45
2023/08/25 04:05:07;;;;;;;22.25;18.75;;;;;;;17.11;100.00;100538.34;4952629;28;20192;-44
2023/08/25 04:07:33;;;;;;;20.40;18.38;;;;;;;17.09;100.00;100539.31;4968028;28;20207;-45
2023/08/25 04:09:58;;;;;;;18.75;17.08;;;;;;;17.10;100.00;100542.91;4976453;28;20279;-45
2023/08/25 04:12:24;;;;;;;20.80;18.55;;;;;;;17.09;100.00;100536.59;4974962;28;20192;-45
2023/08/25 04:14:49;;;;;;;22.17;19.90;;;;;;;17.06;100.00;100536.81;4973258;28;20222;-45
2023/08/25 04:17:16;;;;;;;20.98;19.00;;;;;;;17.11;100.00;100532.94;4978717;28;20181;-46
2023/08/25 04:19:42;;;;;;;22.88;20.55;;;;;;;17.03;100.00;100536.16;4956971;28;20229;-42
2023/08/25 04:22:08;;;;;;;21.90;19.88;;;;;;;17.05;100.00;100531.50;4957944;28;20280;-45
2023/08/25 04:24:34;;;;;;;22.63;20.42;;;;;;;17.02;100.00;100535.28;4960604;28;20220;-46
2023/08/25 04:27:00;;;;;;;22.77;20.65;;;;;;;17.05;100.00;100535.09;4976076;28;20174;-44
2023/08/25 04:29:26;;;;;;;24.42;22.05;;;;;;;16.98;100.00;100524.78;4958374;28;20212;-45
2023/08/25 04:31:52;;;;;;;24.85;22.45;;;;;;;17.00;100.00;100539.94;4964756;28;20177;-43
2023/08/25 04:34:30;;;;;;;27.90;23.58;;;;;;;16.96;100.00;100535.72;4961375;28;20656;-43
2023/08/25 04:36:56;;;;;;;22.30;20.00;;;;;;;17.03;100.00;100537.06;4975849;28;20194;-45
2023/08/25 04:39:21;;;;;;;30.73;27.50;;;;;;;17.00;100.00;100536.38;4969295;28;20215;-45
2023/08/25 04:41:47;;;;;;;24.63;22.13;;;;;;;17.09;100.00;100541.16;4961027;28;20182;-45
2023/08/25 04:44:12;;;;;;;30.25;27.33;;;;;;;17.07;100.00;100541.25;4960788;28;20644;-45
2023/08/25 04:46:39;;;;;;;24.55;22.33;;;;;;;17.13;100.00;100548.09;4957349;28;20202;-43
2023/08/25 04:49:04;;;;;;;33.95;30.35;;;;;;;17.14;100.00;100541.69;4959167;28;20209;-46
2023/08/25 04:51:35;;;;;;;34.60;31.05;;;;;;;17.18;100.00;100550.47;4964532;28;20253;-44
2023/08/25 04:54:03;;;;;;;32.70;29.38;;;;;;;17.28;100.00;100549.72;4968210;28;20178;-44
2023/08/25 04:56:28;;;;;;;40.80;36.42;;;;;;;17.26;100.00;100556.22;4962848;28;20248;-45
2023/08/25 04:58:54;;;;;;;39.85;35.38;;;;;;;17.28;100.00;100552.41;4958523;28;20243;-46
2023/08/25 05:01:19;;;;;;;42.10;37.90;;;;;;;17.28;100.00;100556.97;4959634;28;20681;-45
2023/08/25 05:03:45;;;;;;;40.78;35.78;;;;;;;17.35;100.00;100562.81;4955728;28;20206;-46
2023/08/25 05:06:11;;;;;;;43.25;38.05;;;;;;;17.37;100.00;100553.59;4963054;28;20232;-45
2023/08/25 05:08:37;;;;;;;49.17;43.30;;;;;;;17.38;100.00;100568.91;4953260;28;20201;-46
2023/08/25 05:11:03;;;;;;;44.10;39.53;;;;;;;17.43;100.00;100563.16;4947164;28;20185;-45
2023/08/25 05:13:29;;;;;;;44.47;39.70;;;;;;;17.43;100.00;100568.56;4969101;28;20182;-44
2023/08/25 05:15:55;;;;;;;45.00;40.13;;;;;;;17.48;100.00;100569.09;4960954;28;20589;-45
2023/08/25 05:18:40;;;;;;;45.88;41.10;;;;;;;17.48;100.00;100588.06;4964895;28;20201;-45
2023/08/25 05:21:05;;;;;;;51.05;45.83;;;;;;;17.50;100.00;100577.97;4965381;28;20190;-45
2023/08/25 05:23:32;;;;;;;50.50;45.03;;;;;;;17.56;100.00;100587.50;4949093;28;20186;-45
2023/08/25 05:25:57;;;;;;;49.03;43.08;;;;;;;17.60;100.00;100586.28;4962645;28;20216;-45
2023/08/25 05:28:24;;;;;;;53.13;47.55;;;;;;;17.59;100.00;100585.44;4974634;28;20210;-48
2023/08/25 05:30:50;;;;;;;57.95;51.40;;;;;;;17.64;100.00;100590.53;4961960;28;20190;-44
2023/08/25 05:33:22;;;;;;;56.72;50.22;;;;;;;17.68;100.00;100589.34;4969530;28;20187;-47
2023/08/25 05:36:03;;;;;;;55.72;49.75;;;;;;;17.78;100.00;100592.25;4960809;28;20186;-47
2023/08/25 05:38:29;;;;;;;57.63;50.97;;;;;;;17.79;100.00;100592.13;4966312;28;20185;-45
2023/08/25 05:40:55;;;;;;;54.88;49.13;;;;;;;17.83;100.00;100595.53;4981045;28;20204;-44
2023/08/25 05:43:21;;;;;;;57.53;51.25;;;;;;;17.87;100.00;100587.06;4964417;28;20248;-45
2023/08/25 05:45:46;;;;;;;55.13;49.17;;;;;;;17.94;100.00;100587.47;4980203;28;20648;-46
2023/08/25 05:48:12;;;;;;;46.70;41.85;;;;;;;18.02;100.00;100587.78;4975949;28;20249;-44
2023/08/25 05:50:37;;;;;;;60.85;54.25;;;;;;;18.10;100.00;100590.81;4953480;28;20201;-45
2023/08/25 05:53:03;;;;;;;61.25;54.78;;;;;;;18.22;100.00;100586.31;4983364;28;20228;-44
2023/08/25 05:55:30;;;;;;;59.22;53.03;;;;;;;18.44;100.00;100582.00;4959190;28;20197;-44
2023/08/25 05:57:55;;;;;;;57.53;51.58;;;;;;;18.57;100.00;100579.25;4980155;28;20217;-47
2023/08/25 06:00:21;;;;;;;58.92;52.85;;;;;;;18.61;100.00;100580.75;4977288;28;20205;-43
2023/08/25 06:02:46;;;;;;;59.90;53.55;;;;;;;18.74;100.00;100586.97;4975798;28;20625;-45
2023/08/25 06:05:12;;;;;;;45.50;40.92;;;;;;;18.87;100.00;100585.06;4977910;28;20190;-44
2023/08/25 06:07:38;;;;;;;58.33;52.13;;;;;;;18.76;100.00;100579.56;4958795;28;20593;-45
2023/08/25 06:10:04;;;;;;;55.58;49.80;;;;;;;18.68;100.00;100579.28;4971569;28;20205;-44
2023/08/25 06:12:29;;;;;;;55.55;49.72;;;;;;;18.70;100.00;100578.19;4980386;28;20174;-44
2023/08/25 06:14:55;;;;;;;57.38;51.47;;;;;;;18.60;100.00;100584.41;4976270;28;20186;-45
2023/08/25 06:17:20;;;;;;;54.83;49.22;;;;;;;18.60;100.00;100584.41;4973449;28;20568;-44
2023/08/25 06:19:46;;;;;;;45.85;41.50;;;;;;;18.69;100.00;100589.13;4981936;28;20212;-45
2023/08/25 06:22:11;;;;;;;61.08;54.45;;;;;;;18.60;100.00;100589.84;4980742;28;20209;-44
2023/08/25 06:24:37;;;;;;;55.03;49.28;;;;;;;18.64;100.00;100594.06;4976917;28;20298;-44
2023/08/25 06:27:03;;;;;;;61.00;54.50;;;;;;;18.69;100.00;100589.13;4975460;28;20170;-43
2023/08/25 06:29:29;;;;;;;64.55;57.40;;;;;;;18.80;100.00;100586.50;4978674;28;20597;-45
2023/08/25 06:31:56;;;;;;;61.95;55.35;;;;;;;18.90;100.00;100595.69;4977160;28;20193;-46
2023/08/25 06:34:22;;;;;;;61.90;55.33;;;;;;;18.94;100.00;100599.88;4972044;28;20193;-44
2023/08/25 06:36:47;;;;;;;61.78;55.47;;;;;;;18.90;100.00;100598.38;4976127;28;20344;-43
2023/08/25 06:39:13;;;;;;;55.33;49.65;;;;;;;19.03;100.00;100592.88;4977655;28;20284;-45
2023/08/25 06:41:38;;;;;;;63.25;56.72;;;;;;;19.12;100.00;100594.03;4960719;28;20327;-45
2023/08/25 06:44:08;;;;;;;59.28;53.35;;;;;;;19.30;100.00;100589.00;4952427;28;20181;-46
2023/08/25 06:46:34;;;;;;;61.33;55.30;;;;;;;19.34;100.00;100583.19;4974564;28;20243;-41
2023/08/25 06:49:00;;;;;;;59.95;53.72;;;;;;;19.38;100.00;100585.69;4982021;28;20202;-42
2023/08/25 06:51:25;;;;;;;55.55;50.05;;;;;;;19.47;100.00;100590.38;4981762;28;20321;-41
2023/08/25 06:53:51;;;;;;;57.90;51.97;;;;;;;19.32;100.00;100579.72;4979876;28;20178;-43
2023/08/25 06:56:16;;;;;;;59.17;53.17;;;;;;;19.15;100.00;100574.75;4978455;28;20529;-43
2023/08/25 06:58:42;;;;;;;57.38;51.45;;;;;;;19.17;100.00;100580.06;4981105;28;20295;-42
2023/08/25 07:01:07;;;;;;;59.45;53.22;;;;;;;19.11;100.00;100575.97;4978840;28;20699;-42
2023/08/25 07:03:33;;;;;;;58.60;52.80;;;;;;;19.05;100.00;100569.19;4979507;28;21005;-43
2023/08/25 07:05:58;;;;;;;56.90;51.08;;;;;;;19.03;100.00;100560.31;4979125;28;20196;-44
2023/08/25 07:08:25;;;;;;;58.83;52.47;;;;;;;19.09;100.00;100564.41;4971889;28;20196;-44
2023/08/25 07:10:51;;;;;;;59.28;53.30;;;;;;;19.24;100.00;100567.75;4976177;28;20193;-44
2023/08/25 07:13:17;;;;;;;52.00;46.63;;;;;;;19.63;100.00;100560.13;4978521;28;20177;-43
2023/08/25 07:15:43;;;;;;;56.95;51.13;;;;;;;19.94;100.00;100572.09;4975751;28;20248;-45
2023/08/25 07:18:09;;;;;;;52.33;46.90;;;;;;;20.20;100.00;100569.09;4971237;28;20201;-45
2023/08/25 07:20:34;;;;;;;51.47;46.20;;;;;;;20.40;100.00;100567.44;4981003;28;20213;-46
2023/08/25 07:23:00;;;;;;;49.30;44.35;;;;;;;20.47;100.00;100561.38;4979756;28;20196;-42
2023/08/25 07:25:25;;;;;;;48.92;43.97;;;;;;;20.74;100.00;100557.31;4966046;28;20204;-43
2023/08/25 07:27:51;;;;;;;47.88;43.15;;;;;;;20.73;100.00;100545.59;4978294;28;20275;-41
2023/08/25 07:30:17;;;;;;;44.45;40.17;;;;;;;20.76;100.00;100552.63;4977277;28;20287;-41
2023/08/25 07:32:42;;;;;;;36.42;32.85;;;;;;;20.69;100.00;100554.16;4979246;28;20702;-44
2023/08/25 07:35:08;;;;;;;36.63;33.08;;;;;;;20.84;100.00;100550.09;4965635;28;20221;-41
2023/08/25 07:37:34;;;;;;;41.13;37.03;;;;;;;20.69;100.00;100551.41;4974192;28;20608;-40
2023/08/25 07:40:00;;;;;;;41.20;37.42;;;;;;;20.44;100.00;100548.00;4975249;28;20206;-39
2023/08/25 07:42:26;;;;;;;35.63;32.22;;;;;;;20.32;100.00;100549.91;4960963;28;20181;-42
2023/08/25 07:44:52;;;;;;;34.55;31.35;;;;;;;20.28;100.00;100542.13;4978344;28;20212;-43
2023/08/25 07:47:18;;;;;;;38.10;34.15;;;;;;;20.30;100.00;100551.03;4975566;28;20180;-40
2023/08/25 07:49:43;;;;;;;37.53;33.80;;;;;;;20.12;100.00;100548.84;4975831;28;20197;-41
2023/08/25 07:52:09;;;;;;;34.25;31.05;;;;;;;20.11;100.00;100558.00;4965426;28;20251;-40
2023/08/25 07:54:35;;;;;;;30.35;27.35;;;;;;;19.97;100.00;100566.44;4980747;28;20165;-40
2023/08/25 07:57:00;;;;;;;30.33;27.10;;;;;;;19.96;100.00;100560.13;4978265;28;20307;-40
2023/08/25 07:59:26;;;;;;;29.30;26.35;;;;;;;20.16;100.00;100565.78;4974505;28;20849;-41
2023/08/25 08:01:51;;;;;;;30.80;27.80;;;;;;;20.03;100.00;100565.06;4981792;28;20173;-41
2023/08/25 08:04:17;;;;;;;27.08;24.48;;;;;;;20.24;100.00;100566.00;4978712;28;20198;-41
2023/08/25 08:06:42;;;;;;;26.67;23.38;;;;;;;20.34;100.00;100571.56;4980145;28;20185;-42
2023/08/25 08:09:08;;;;;;;24.27;21.67;;;;;;;20.53;100.00;100568.13;4975568;28;20194;-41
2023/08/25 08:11:34;;;;;;;23.95;21.55;;;;;;;20.60;100.00;100579.41;4983712;28;20185;-41
2023/08/25 08:14:02;;;;;;;22.67;20.55;;;;;;;20.51;100.00;100579.19;4974569;28;20519;-40
2023/08/25 08:16:28;;;;;;;22.15;19.70;;;;;;;20.53;100.00;100579.91;4976565;28;20284;-41
2023/08/25 08:18:54;;;;;;;23.75;21.45;;;;;;;20.50;100.00;100574.72;4981627;28;20292;-42
2023/08/25 08:21:19;;;;;;;22.85;19.73;;;;;;;20.42;100.00;100570.91;4974349;28;20555;-40
2023/08/25 08:23:45;;;;;;;19.83;17.92;;;;;;;20.48;100.00;100579.41;4979167;28;20184;-40
2023/08/25 08:26:11;;;;;;;22.88;19.70;;;;;;;20.48;100.00;100575.84;4976339;28;20181;-41
2023/08/25 08:28:36;;;;;;;24.67;18.75;;;;;;;20.86;100.00;100590.81;4977352;28;20197;-42
2023/08/25 08:31:05;;;;;;;20.73;18.58;;;;;;;21.03;100.00;100587.50;4974955;28;20201;-39
2023/08/25 08:33:34;;;;;;;21.83;19.60;;;;;;;20.71;100.00;100590.28;4977056;28;20188;-41
2023/08/25 08:36:00;;;;;;;20.45;18.35;;;;;;;21.18;100.00;100596.22;4974056;28;20260;-40
2023/08/25 08:38:26;;;;;;;19.65;17.65;;;;;;;21.74;100.00;100582.22;4977721;28;20423;-41
2023/08/25 08:40:51;;;;;;;17.17;15.40;;;;;;;21.79;100.00;100579.06;4979578;28;20174;-42
2023/08/25 08:43:18;;;;;;;18.90;15.55;;;;;;;21.75;100.00;100573.03;4979816;28;20185;-40
2023/08/25 08:45:46;;;;;;;15.70;13.93;;;;;;;21.68;100.00;100566.41;4984233;28;20628;-40
2023/08/25 08:48:12;;;;;;;18.42;16.10;;;;;;;21.63;100.00;100568.69;4978242;28;20661;-40
2023/08/25 08:50:39;;;;;;;18.40;15.75;;;;;;;21.71;100.00;100567.97;4979664;28;20208;-40
2023/08/25 08:53:05;;;;;;;16.73;12.43;;;;;;;22.23;100.00;100548.78;4980853;28;20691;-41
2023/08/25 08:55:33;;;;;;;15.20;13.70;;;;;;;22.68;100.00;100546.41;4978153;28;20185;-40
2023/08/25 08:57:58;;;;;;;19.35;15.05;;;;;;;22.86;100.00;100552.00;4981517;28;20205;-40
2023/08/25 09:00:24;;;;;;;18.13;15.70;;;;;;;22.68;100.00;100551.00;4978906;28;20277;-41
2023/08/25 09:02:53;;;;;;;17.17;15.20;;;;;;;22.74;100.00;100561.31;4987171;28;20175;-41
2023/08/25 09:05:27;;;;;;;14.75;12.93;;;;;;;23.01;100.00;100550.56;4964414;28;20276;-40
2023/08/25 09:07:57;;;;;;;11.95;9.60;;;;;;;22.77;100.00;100547.41;4977137;28;20196;-41
2023/08/25 09:10:27;;;;;;;9.35;7.63;;;;;;;22.99;100.00;100551.69;4978526;28;20283;-42
2023/08/25 09:12:52;;;;;;;8.82;7.22;;;;;;;23.34;97.43;100534.66;4980962;28;20216;-41
2023/08/25 09:15:29;;;;;;;11.52;8.18;;;;;;;23.53;94.11;100522.81;4976046;28;20625;-43
2023/08/25 09:18:08;;;;;;;8.70;7.85;;;;;;;23.24;93.75;100521.03;4982006;28;20615;-41
2023/08/25 09:20:38;;;;;;;11.30;8.88;;;;;;;23.38;92.54;100524.31;4980181;28;20210;-44
2023/08/25 09:23:04;;;;;;;11.98;7.75;;;;;;;23.56;90.77;100516.16;4977435;28;20201;-43
2023/08/25 09:25:31;;;;;;;10.07;7.70;;;;;;;23.53;89.22;100505.53;4983452;28;20657;-43
2023/08/25 09:27:58;;;;;;;10.40;7.32;;;;;;;23.79;88.47;100506.59;4984947;28;20177;-41
2023/08/25 09:30:34;;;;;;;8.85;7.57;;;;;;;23.74;87.88;100521.69;4983980;28;20711;-42
2023/08/25 09:33:08;;;;;;;10.93;9.15;;;;;;;23.84;87.45;100528.88;4978178;28;20313;-43
2023/08/25 09:35:34;;;;;;;9.55;6.93;;;;;;;23.27;85.96;100530.81;4978935;28;20169;-40
2023/08/25 09:38:00;;;;;;;8.90;5.68;;;;;;;23.21;85.76;100525.94;4978060;28;20201;-41
2023/08/25 09:40:27;;;;;;;6.40;4.65;;;;;;;22.89;84.71;100518.91;4976273;28;20481;-41
2023/08/25 09:43:00;;;;;;;5.30;3.80;;;;;;;23.19;83.59;100517.00;4983876;28;20260;-41
2023/08/25 09:45:28;;;;;;;5.97;3.40;;;;;;;23.48;82.34;100518.78;4980215;28;20184;-42
2023/08/25 09:48:05;;;;;;;5.18;3.30;;;;;;;23.78;81.50;100521.25;4977529;28;20268;-41
2023/08/25 09:50:42;;;;;;;9.23;4.35;;;;;;;23.32;81.00;100520.28;4980823;28;20208;-39
2023/08/25 09:53:10;;;;;;;4.53;3.25;;;;;;;23.99;80.74;100525.63;4976543;28;20189;-42
2023/08/25 09:55:37;;;;;;;5.07;3.25;;;;;;;23.61;81.29;100524.78;4976106;28;20228;-41
2023/08/25 09:58:07;;;;;;;6.65;3.53;;;;;;;23.49;80.31;100528.72;4982606;28;20191;-42
2023/08/25 10:00:35;;;;;;;5.78;3.20;;;;;;;23.35;80.52;100547.34;4977183;28;20213;-42
2023/08/25 10:03:08;;;;;;;4.85;3.35;;;;;;;23.40;81.57;100552.34;4978561;28;20238;-41
2023/08/25 10:05:36;;;;;;;7.78;3.30;;;;;;;23.42;82.17;100556.66;4980689;28;20212;-40
2023/08/25 10:08:01;;;;;;;5.75;3.38;;;;;;;23.10;83.04;100570.69;4982734;28;20209;-42
2023/08/25 10:10:31;;;;;;;5.22;3.15;;;;;;;23.23;82.92;100570.38;4978865;28;20201;-41
2023/08/25 10:12:57;;;;;;;8.02;3.63;;;;;;;23.07;82.87;100567.38;4981700;28;20292;-41
2023/08/25 10:15:30;;;;;;;5.82;3.22;;;;;;;23.00;84.05;100569.81;4973743;28;20260;-41
2023/08/25 10:18:06;;;;;;;6.07;3.00;;;;;;;23.44;84.39;100579.25;4980259;28;20694;-40
2023/08/25 10:20:39;;;;;;;4.97;2.88;;;;;;;23.52;82.09;100564.81;4978321;28;20199;-41
2023/08/25 10:23:05;;;;;;;6.75;3.20;;;;;;;23.50;81.56;100560.50;4971757;28;20192;-41
2023/08/25 10:25:31;;;;;;;5.68;3.70;;;;;;;23.30;82.92;100576.13;4965593;28;20553;-41
2023/08/25 10:27:59;;;;;;;7.43;3.88;;;;;;;23.35;83.01;100574.69;4962366;28;20251;-41
2023/08/25 10:30:26;;;;;;;7.57;4.03;;;;;;;23.20;82.77;100576.16;4974892;28;20197;-42
2023/08/25 10:33:00;;;;;;;6.75;3.55;;;;;;;23.60;83.33;100575.88;4978810;28;20264;-41
2023/08/25 10:35:48;;;;;;;4.88;3.55;;;;;;;23.48;83.96;100571.59;4980734;28;20233;-40
2023/08/25 10:38:19;;;;;;;6.65;4.10;;;;;;;23.18;83.68;100572.69;4975879;28;20201;-41
2023/08/25 10:40:53;;;;;;;7.60;4.45;;;;;;;22.81;85.24;100587.09;4970962;28;20186;-40
2023/08/25 10:43:23;;;;;;;10.20;5.05;;;;;;;22.58;84.78;100586.47;4976848;28;20200;-40
2023/08/25 10:45:52;;;;;;;8.82;4.50;;;;;;;22.69;85.43;100577.28;4974882;28;20772;-41
2023/08/25 10:48:21;;;;;;;8.82;4.80;;;;;;;22.72;84.95;100583.34;4970578;28;20639;-42
2023/08/25 10:50:47;;;;;;;7.60;4.55;;;;;;;22.59;84.72;100583.63;4975480;28;20189;-41
2023/08/25 10:53:38;;;;;;;5.15;4.43;;;;;;;22.75;84.29;100584.91;4974775;28;20298;-40
2023/08/25 10:56:18;;;;;;;6.57;4.30;;;;;;;22.70;85.94;100593.53;4971736;28;20186;-41
2023/08/25 10:59:10;;;;;;;7.47;4.82;;;;;;;22.52;86.30;100601.59;4975644;28;20680;-39
2023/08/25 11:01:35;;;;;;;7.00;4.97;;;;;;;22.49;87.68;100607.31;4977196;28;20193;-42
2023/08/25 11:04:05;;;;;;;10.07;5.20;;;;;;;22.58;88.61;100611.91;4980723;28;20196;-43
2023/08/25 11:06:44;;;;;;;8.68;5.45;;;;;;;22.56;88.00;100611.19;4959088;28;20176;-42
2023/08/25 11:09:31;;;;;;;9.40;5.88;;;;;;;22.67;87.61;100598.41;4981049;28;20639;-41
2023/08/25 11:11:59;;;;;;;7.95;5.05;;;;;;;22.98;87.25;100588.19;4979292;28;20181;-40